sensor_id;sensor_type;location;lat;lon;timestamp;P1;durP1;ratioP1;P2;durP2;ratioP2
42018;SDS011;27703;51.980;5.848;2022-10-31T00:01:31;5.60;;;3.72;;
42018;SDS011;27703;51.980;5.848;2022-10-31T00:03:59;8.57;;;4.13;;
42018;SDS011;27703;51.980;5.848;2022-10-31T00:06:25;5.97;;;4.45;;
42018;SDS011;27703;51.980;5.848;2022-10-31T00:08:52;8.45;;;4.25;;
42018;SDS011;27703;51.980;5.848;2022-10-31T00:11:22;6.97;;;4.10;;
42018;SDS011;27703;51.980;5.848;2022-10-31T00:13:48;9.15;;;4.57;;
42018;SDS011;27703;51.980;5.848;2022-10-31T00:16:14;7.85;;;4.18;;
42018;SDS011;27703;51.980;5.848;2022-10-31T00:18:41;4.43;;;3.90;;
42018;SDS011;27703;51.980;5.848;2022-10-31T00:21:06;9.93;;;3.97;;
42018;SDS011;27703;51.980;5.848;2022-10-31T00:23:32;9.18;;;3.50;;
42018;SDS011;27703;51.980;5.848;2022-10-31T00:26:01;9.18;;;4.05;;
42018;SDS011;27703;51.980;5.848;2022-10-31T00:28:27;7.82;;;4.10;;
42018;SDS011;27703;51.980;5.848;2022-10-31T00:30:57;6.05;;;3.85;;
42018;SDS011;27703;51.980;5.848;2022-10-31T00:33:24;3.78;;;3.38;;
42018;SDS011;27703;51.980;5.848;2022-10-31T00:35:49;4.90;;;4.05;;
42018;SDS011;27703;51.980;5.848;2022-10-31T00:38:15;8.23;;;3.83;;
42018;SDS011;27703;51.980;5.848;2022-10-31T00:40:41;5.47;;;3.95;;
42018;SDS011;27703;51.980;5.848;2022-10-31T00:43:06;5.10;;;3.40;;
42018;SDS011;27703;51.980;5.848;2022-10-31T00:45:32;6.80;;;4.10;;
42018;SDS011;27703;51.980;5.848;2022-10-31T00:47:58;6.18;;;3.80;;
42018;SDS011;27703;51.980;5.848;2022-10-31T00:50:23;7.53;;;4.00;;
42018;SDS011;27703;51.980;5.848;2022-10-31T00:52:49;7.40;;;4.18;;
42018;SDS011;27703;51.980;5.848;2022-10-31T00:55:14;5.63;;;4.05;;
42018;SDS011;27703;51.980;5.848;2022-10-31T00:57:40;4.07;;;3.58;;
42018;SDS011;27703;51.980;5.848;2022-10-31T01:00:05;7.28;;;3.38;;
42018;SDS011;27703;51.980;5.848;2022-10-31T01:02:31;7.18;;;4.68;;
42018;SDS011;27703;51.980;5.848;2022-10-31T01:04:57;7.18;;;3.63;;
42018;SDS011;27703;51.980;5.848;2022-10-31T01:07:22;8.80;;;4.88;;
42018;SDS011;27703;51.980;5.848;2022-10-31T01:09:48;7.28;;;4.03;;
42018;SDS011;27703;51.980;5.848;2022-10-31T01:12:13;8.43;;;4.40;;
42018;SDS011;27703;51.980;5.848;2022-10-31T01:14:42;7.40;;;3.83;;
42018;SDS011;27703;51.980;5.848;2022-10-31T01:17:09;8.85;;;4.07;;
42018;SDS011;27703;51.980;5.848;2022-10-31T01:19:35;5.93;;;3.95;;
42018;SDS011;27703;51.980;5.848;2022-10-31T01:22:00;6.47;;;4.15;;
42018;SDS011;27703;51.980;5.848;2022-10-31T01:24:26;11.10;;;3.63;;
42018;SDS011;27703;51.980;5.848;2022-10-31T01:26:51;4.93;;;3.58;;
42018;SDS011;27703;51.980;5.848;2022-10-31T01:29:17;4.72;;;3.33;;
42018;SDS011;27703;51.980;5.848;2022-10-31T01:31:42;7.70;;;5.22;;
42018;SDS011;27703;51.980;5.848;2022-10-31T01:34:10;8.57;;;3.65;;
42018;SDS011;27703;51.980;5.848;2022-10-31T01:36:38;8.23;;;4.78;;
42018;SDS011;27703;51.980;5.848;2022-10-31T01:39:05;8.35;;;4.15;;
42018;SDS011;27703;51.980;5.848;2022-10-31T01:41:34;11.45;;;5.05;;
42018;SDS011;27703;51.980;5.848;2022-10-31T01:44:02;6.20;;;4.72;;
42018;SDS011;27703;51.980;5.848;2022-10-31T01:46:39;8.10;;;4.22;;
42018;SDS011;27703;51.980;5.848;2022-10-31T01:49:22;6.50;;;4.37;;
42018;SDS011;27703;51.980;5.848;2022-10-31T01:52:12;7.57;;;3.83;;
42018;SDS011;27703;51.980;5.848;2022-10-31T01:55:07;6.18;;;4.22;;
42018;SDS011;27703;51.980;5.848;2022-10-31T01:57:42;8.85;;;4.25;;
42018;SDS011;27703;51.980;5.848;2022-10-31T02:00:12;11.23;;;3.58;;
42018;SDS011;27703;51.980;5.848;2022-10-31T02:02:38;4.63;;;3.70;;
42018;SDS011;27703;51.980;5.848;2022-10-31T02:05:04;6.72;;;4.30;;
42018;SDS011;27703;51.980;5.848;2022-10-31T02:07:36;5.45;;;4.10;;
42018;SDS011;27703;51.980;5.848;2022-10-31T02:10:15;8.75;;;4.00;;
42018;SDS011;27703;51.980;5.848;2022-10-31T02:12:41;8.43;;;4.38;;
42018;SDS011;27703;51.980;5.848;2022-10-31T02:15:07;5.80;;;4.22;;
42018;SDS011;27703;51.980;5.848;2022-10-31T02:17:34;5.13;;;4.13;;
42018;SDS011;27703;51.980;5.848;2022-10-31T02:25:12;4.38;;;3.97;;
42018;SDS011;27703;51.980;5.848;2022-10-31T02:33:55;5.40;;;3.88;;
42018;SDS011;27703;51.980;5.848;2022-10-31T02:41:49;5.30;;;3.70;;
42018;SDS011;27703;51.980;5.848;2022-10-31T02:44:30;6.38;;;3.85;;
42018;SDS011;27703;51.980;5.848;2022-10-31T02:47:08;4.70;;;3.53;;
42018;SDS011;27703;51.980;5.848;2022-10-31T02:49:40;6.72;;;5.07;;
42018;SDS011;27703;51.980;5.848;2022-10-31T02:52:30;8.57;;;4.93;;
42018;SDS011;27703;51.980;5.848;2022-10-31T02:54:56;6.57;;;4.07;;
42018;SDS011;27703;51.980;5.848;2022-10-31T02:57:23;4.60;;;4.10;;
42018;SDS011;27703;51.980;5.848;2022-10-31T03:00:03;5.43;;;4.25;;
42018;SDS011;27703;51.980;5.848;2022-10-31T03:05:19;6.40;;;4.30;;
42018;SDS011;27703;51.980;5.848;2022-10-31T03:10:58;6.57;;;4.93;;
42018;SDS011;27703;51.980;5.848;2022-10-31T03:14:00;5.95;;;4.90;;
42018;SDS011;27703;51.980;5.848;2022-10-31T03:19:11;9.07;;;5.55;;
42018;SDS011;27703;51.980;5.848;2022-10-31T03:21:47;6.25;;;4.28;;
42018;SDS011;27703;51.980;5.848;2022-10-31T03:24:22;6.88;;;5.10;;
42018;SDS011;27703;51.980;5.848;2022-10-31T03:26:50;9.30;;;4.80;;
42018;SDS011;27703;51.980;5.848;2022-10-31T03:29:19;6.10;;;4.70;;
42018;SDS011;27703;51.980;5.848;2022-10-31T03:31:50;6.65;;;4.13;;
42018;SDS011;27703;51.980;5.848;2022-10-31T03:34:19;6.75;;;4.70;;
42018;SDS011;27703;51.980;5.848;2022-10-31T03:36:46;8.25;;;4.55;;
42018;SDS011;27703;51.980;5.848;2022-10-31T03:39:15;6.38;;;4.72;;
42018;SDS011;27703;51.980;5.848;2022-10-31T03:41:45;4.43;;;3.85;;
42018;SDS011;27703;51.980;5.848;2022-10-31T03:44:19;5.32;;;3.70;;
42018;SDS011;27703;51.980;5.848;2022-10-31T03:46:46;7.20;;;3.95;;
42018;SDS011;27703;51.980;5.848;2022-10-31T03:49:12;4.88;;;3.92;;
42018;SDS011;27703;51.980;5.848;2022-10-31T03:54:26;7.57;;;4.13;;
42018;SDS011;27703;51.980;5.848;2022-10-31T03:57:05;5.10;;;3.35;;
42018;SDS011;27703;51.980;5.848;2022-10-31T03:59:40;6.73;;;4.07;;
42018;SDS011;27703;51.980;5.848;2022-10-31T04:02:17;8.40;;;3.90;;
42018;SDS011;27703;51.980;5.848;2022-10-31T04:04:45;4.47;;;3.97;;
42018;SDS011;27703;51.980;5.848;2022-10-31T04:07:13;6.72;;;3.30;;
42018;SDS011;27703;51.980;5.848;2022-10-31T04:09:41;6.05;;;3.97;;
42018;SDS011;27703;51.980;5.848;2022-10-31T04:12:10;7.35;;;4.32;;
42018;SDS011;27703;51.980;5.848;2022-10-31T04:14:40;6.32;;;4.80;;
42018;SDS011;27703;51.980;5.848;2022-10-31T04:17:09;7.13;;;5.43;;
42018;SDS011;27703;51.980;5.848;2022-10-31T04:19:38;8.02;;;4.68;;
42018;SDS011;27703;51.980;5.848;2022-10-31T04:22:04;5.28;;;4.53;;
42018;SDS011;27703;51.980;5.848;2022-10-31T04:24:29;6.72;;;4.68;;
42018;SDS011;27703;51.980;5.848;2022-10-31T04:26:55;7.38;;;5.18;;
42018;SDS011;27703;51.980;5.848;2022-10-31T04:29:20;7.18;;;4.95;;
42018;SDS011;27703;51.980;5.848;2022-10-31T04:31:46;9.55;;;5.50;;
42018;SDS011;27703;51.980;5.848;2022-10-31T04:34:11;10.18;;;5.18;;
42018;SDS011;27703;51.980;5.848;2022-10-31T04:36:37;7.82;;;6.00;;
42018;SDS011;27703;51.980;5.848;2022-10-31T04:39:03;6.93;;;5.07;;
42018;SDS011;27703;51.980;5.848;2022-10-31T04:41:28;7.13;;;5.30;;
42018;SDS011;27703;51.980;5.848;2022-10-31T04:43:54;6.45;;;4.45;;
42018;SDS011;27703;51.980;5.848;2022-10-31T04:46:19;7.80;;;4.93;;
42018;SDS011;27703;51.980;5.848;2022-10-31T04:48:45;8.80;;;5.90;;
42018;SDS011;27703;51.980;5.848;2022-10-31T04:51:10;7.93;;;4.97;;
42018;SDS011;27703;51.980;5.848;2022-10-31T04:53:36;8.10;;;4.78;;
42018;SDS011;27703;51.980;5.848;2022-10-31T04:56:02;9.50;;;5.65;;
42018;SDS011;27703;51.980;5.848;2022-10-31T04:58:28;8.52;;;5.45;;
42018;SDS011;27703;51.980;5.848;2022-10-31T05:00:54;8.80;;;5.57;;
42018;SDS011;27703;51.980;5.848;2022-10-31T05:03:20;10.95;;;6.13;;
42018;SDS011;27703;51.980;5.848;2022-10-31T05:05:46;10.45;;;5.80;;
42018;SDS011;27703;51.980;5.848;2022-10-31T05:08:13;7.97;;;6.07;;
42018;SDS011;27703;51.980;5.848;2022-10-31T05:10:39;8.38;;;5.45;;
42018;SDS011;27703;51.980;5.848;2022-10-31T05:13:04;10.13;;;6.53;;
42018;SDS011;27703;51.980;5.848;2022-10-31T05:15:30;7.05;;;5.43;;
42018;SDS011;27703;51.980;5.848;2022-10-31T05:17:56;7.97;;;5.40;;
42018;SDS011;27703;51.980;5.848;2022-10-31T05:20:23;7.80;;;6.13;;
42018;SDS011;27703;51.980;5.848;2022-10-31T05:22:52;8.73;;;6.43;;
42018;SDS011;27703;51.980;5.848;2022-10-31T05:25:19;8.02;;;6.03;;
42018;SDS011;27703;51.980;5.848;2022-10-31T05:27:46;9.13;;;7.18;;
42018;SDS011;27703;51.980;5.848;2022-10-31T05:30:15;9.32;;;6.10;;
42018;SDS011;27703;51.980;5.848;2022-10-31T05:32:44;9.77;;;6.80;;
42018;SDS011;27703;51.980;5.848;2022-10-31T05:35:12;12.63;;;7.25;;
42018;SDS011;27703;51.980;5.848;2022-10-31T05:37:39;9.98;;;6.53;;
42018;SDS011;27703;51.980;5.848;2022-10-31T05:40:06;7.43;;;5.60;;
42018;SDS011;27703;51.980;5.848;2022-10-31T05:42:34;10.52;;;6.80;;
42018;SDS011;27703;51.980;5.848;2022-10-31T05:45:00;9.70;;;6.93;;
42018;SDS011;27703;51.980;5.848;2022-10-31T05:47:26;9.63;;;6.53;;
42018;SDS011;27703;51.980;5.848;2022-10-31T05:49:51;7.13;;;6.38;;
42018;SDS011;27703;51.980;5.848;2022-10-31T05:52:17;9.68;;;7.13;;
42018;SDS011;27703;51.980;5.848;2022-10-31T05:54:43;10.70;;;8.43;;
42018;SDS011;27703;51.980;5.848;2022-10-31T05:57:09;8.55;;;7.22;;
42018;SDS011;27703;51.980;5.848;2022-10-31T05:59:34;10.88;;;7.55;;
42018;SDS011;27703;51.980;5.848;2022-10-31T06:02:00;10.00;;;7.80;;
42018;SDS011;27703;51.980;5.848;2022-10-31T06:04:26;10.68;;;7.18;;
42018;SDS011;27703;51.980;5.848;2022-10-31T06:06:51;9.13;;;6.53;;
42018;SDS011;27703;51.980;5.848;2022-10-31T06:09:17;12.52;;;7.90;;
42018;SDS011;27703;51.980;5.848;2022-10-31T06:11:42;12.00;;;7.68;;
42018;SDS011;27703;51.980;5.848;2022-10-31T06:14:08;10.25;;;7.10;;
42018;SDS011;27703;51.980;5.848;2022-10-31T06:16:33;12.00;;;8.07;;
42018;SDS011;27703;51.980;5.848;2022-10-31T06:18:59;15.63;;;9.07;;
42018;SDS011;27703;51.980;5.848;2022-10-31T06:21:24;10.05;;;7.15;;
42018;SDS011;27703;51.980;5.848;2022-10-31T06:23:50;10.80;;;7.68;;
42018;SDS011;27703;51.980;5.848;2022-10-31T06:26:16;10.27;;;7.75;;
42018;SDS011;27703;51.980;5.848;2022-10-31T06:28:41;9.95;;;7.55;;
42018;SDS011;27703;51.980;5.848;2022-10-31T06:31:07;10.88;;;7.65;;
42018;SDS011;27703;51.980;5.848;2022-10-31T06:33:33;11.05;;;7.93;;
42018;SDS011;27703;51.980;5.848;2022-10-31T06:35:59;9.50;;;7.47;;
42018;SDS011;27703;51.980;5.848;2022-10-31T06:38:25;12.05;;;8.73;;
42018;SDS011;27703;51.980;5.848;2022-10-31T06:40:51;13.93;;;8.70;;
42018;SDS011;27703;51.980;5.848;2022-10-31T06:43:17;12.60;;;8.75;;
42018;SDS011;27703;51.980;5.848;2022-10-31T06:45:43;12.27;;;7.85;;
42018;SDS011;27703;51.980;5.848;2022-10-31T06:48:08;10.70;;;7.65;;
42018;SDS011;27703;51.980;5.848;2022-10-31T06:50:34;9.32;;;7.35;;
42018;SDS011;27703;51.980;5.848;2022-10-31T06:52:59;12.70;;;7.47;;
42018;SDS011;27703;51.980;5.848;2022-10-31T06:55:25;13.43;;;8.93;;
42018;SDS011;27703;51.980;5.848;2022-10-31T06:57:58;12.65;;;8.45;;
42018;SDS011;27703;51.980;5.848;2022-10-31T07:00:25;14.02;;;8.38;;
42018;SDS011;27703;51.980;5.848;2022-10-31T07:02:52;12.45;;;9.30;;
42018;SDS011;27703;51.980;5.848;2022-10-31T07:05:21;15.50;;;8.98;;
42018;SDS011;27703;51.980;5.848;2022-10-31T07:07:47;12.90;;;10.02;;
42018;SDS011;27703;51.980;5.848;2022-10-31T07:10:12;15.52;;;9.13;;
42018;SDS011;27703;51.980;5.848;2022-10-31T07:12:38;14.32;;;10.40;;
42018;SDS011;27703;51.980;5.848;2022-10-31T07:15:03;14.85;;;10.38;;
42018;SDS011;27703;51.980;5.848;2022-10-31T07:17:29;13.35;;;8.77;;
42018;SDS011;27703;51.980;5.848;2022-10-31T07:19:55;12.70;;;8.30;;
42018;SDS011;27703;51.980;5.848;2022-10-31T07:22:21;11.52;;;8.43;;
42018;SDS011;27703;51.980;5.848;2022-10-31T07:24:46;11.13;;;7.57;;
42018;SDS011;27703;51.980;5.848;2022-10-31T07:27:12;13.73;;;8.15;;
42018;SDS011;27703;51.980;5.848;2022-10-31T07:29:37;11.82;;;7.47;;
42018;SDS011;27703;51.980;5.848;2022-10-31T07:32:03;9.40;;;6.95;;
42018;SDS011;27703;51.980;5.848;2022-10-31T07:34:28;8.60;;;7.40;;
42018;SDS011;27703;51.980;5.848;2022-10-31T07:36:54;9.77;;;7.18;;
42018;SDS011;27703;51.980;5.848;2022-10-31T07:39:19;12.15;;;7.32;;
42018;SDS011;27703;51.980;5.848;2022-10-31T07:41:45;8.88;;;6.63;;
42018;SDS011;27703;51.980;5.848;2022-10-31T07:44:10;9.73;;;7.07;;
42018;SDS011;27703;51.980;5.848;2022-10-31T07:46:36;15.25;;;8.30;;
42018;SDS011;27703;51.980;5.848;2022-10-31T07:49:01;12.40;;;7.15;;
42018;SDS011;27703;51.980;5.848;2022-10-31T07:51:27;13.88;;;8.30;;
42018;SDS011;27703;51.980;5.848;2022-10-31T07:53:53;9.45;;;6.88;;
42018;SDS011;27703;51.980;5.848;2022-10-31T07:56:18;10.55;;;6.93;;
42018;SDS011;27703;51.980;5.848;2022-10-31T07:58:44;12.27;;;7.30;;
42018;SDS011;27703;51.980;5.848;2022-10-31T08:01:09;9.10;;;6.97;;
42018;SDS011;27703;51.980;5.848;2022-10-31T08:03:35;10.50;;;7.30;;
42018;SDS011;27703;51.980;5.848;2022-10-31T08:06:00;10.27;;;7.18;;
42018;SDS011;27703;51.980;5.848;2022-10-31T08:08:26;13.38;;;7.93;;
42018;SDS011;27703;51.980;5.848;2022-10-31T08:10:53;9.30;;;6.60;;
42018;SDS011;27703;51.980;5.848;2022-10-31T08:13:19;12.80;;;8.27;;
42018;SDS011;27703;51.980;5.848;2022-10-31T08:15:44;12.40;;;7.43;;
42018;SDS011;27703;51.980;5.848;2022-10-31T08:18:14;10.30;;;7.47;;
42018;SDS011;27703;51.980;5.848;2022-10-31T08:20:41;10.82;;;6.65;;
42018;SDS011;27703;51.980;5.848;2022-10-31T08:23:08;11.57;;;8.32;;
42018;SDS011;27703;51.980;5.848;2022-10-31T08:25:34;10.55;;;7.35;;
42018;SDS011;27703;51.980;5.848;2022-10-31T08:28:00;12.02;;;6.97;;
42018;SDS011;27703;51.980;5.848;2022-10-31T08:30:27;15.77;;;8.63;;
42018;SDS011;27703;51.980;5.848;2022-10-31T08:33:06;10.93;;;7.55;;
42018;SDS011;27703;51.980;5.848;2022-10-31T08:35:39;10.25;;;7.07;;
42018;SDS011;27703;51.980;5.848;2022-10-31T08:38:05;12.52;;;8.30;;
42018;SDS011;27703;51.980;5.848;2022-10-31T08:40:32;9.70;;;7.05;;
42018;SDS011;27703;51.980;5.848;2022-10-31T08:42:59;12.98;;;7.40;;
42018;SDS011;27703;51.980;5.848;2022-10-31T08:45:26;10.00;;;7.45;;
42018;SDS011;27703;51.980;5.848;2022-10-31T08:47:56;11.52;;;7.30;;
42018;SDS011;27703;51.980;5.848;2022-10-31T08:50:23;11.70;;;7.50;;
42018;SDS011;27703;51.980;5.848;2022-10-31T08:52:48;9.48;;;7.22;;
42018;SDS011;27703;51.980;5.848;2022-10-31T08:55:14;10.50;;;7.40;;
42018;SDS011;27703;51.980;5.848;2022-10-31T08:57:39;12.75;;;9.82;;
42018;SDS011;27703;51.980;5.848;2022-10-31T09:00:05;18.27;;;10.55;;
42018;SDS011;27703;51.980;5.848;2022-10-31T09:02:31;15.55;;;9.23;;
42018;SDS011;27703;51.980;5.848;2022-10-31T09:04:57;11.27;;;8.50;;
42018;SDS011;27703;51.980;5.848;2022-10-31T09:07:22;18.13;;;9.23;;
42018;SDS011;27703;51.980;5.848;2022-10-31T09:09:48;10.70;;;8.07;;
42018;SDS011;27703;51.980;5.848;2022-10-31T09:12:13;9.35;;;6.18;;
42018;SDS011;27703;51.980;5.848;2022-10-31T09:14:39;8.10;;;6.50;;
42018;SDS011;27703;51.980;5.848;2022-10-31T09:17:04;6.75;;;5.53;;
42018;SDS011;27703;51.980;5.848;2022-10-31T09:19:30;9.07;;;7.00;;
42018;SDS011;27703;51.980;5.848;2022-10-31T09:21:55;11.55;;;7.47;;
42018;SDS011;27703;51.980;5.848;2022-10-31T09:24:21;10.10;;;7.32;;
42018;SDS011;27703;51.980;5.848;2022-10-31T09:26:47;15.63;;;8.40;;
42018;SDS011;27703;51.980;5.848;2022-10-31T09:29:12;12.18;;;9.40;;
42018;SDS011;27703;51.980;5.848;2022-10-31T09:31:38;9.32;;;8.30;;
42018;SDS011;27703;51.980;5.848;2022-10-31T09:34:03;13.52;;;9.95;;
42018;SDS011;27703;51.980;5.848;2022-10-31T09:36:29;11.48;;;7.97;;
42018;SDS011;27703;51.980;5.848;2022-10-31T09:38:55;11.00;;;8.93;;
42018;SDS011;27703;51.980;5.848;2022-10-31T09:44:26;10.15;;;7.82;;
42018;SDS011;27703;51.980;5.848;2022-10-31T09:47:14;11.10;;;7.63;;
42018;SDS011;27703;51.980;5.848;2022-10-31T09:49:49;11.43;;;6.93;;
42018;SDS011;27703;51.980;5.848;2022-10-31T09:52:31;11.00;;;7.20;;
42018;SDS011;27703;51.980;5.848;2022-10-31T09:55:12;7.82;;;5.97;;
42018;SDS011;27703;51.980;5.848;2022-10-31T09:57:44;9.88;;;6.68;;
42018;SDS011;27703;51.980;5.848;2022-10-31T10:00:14;10.73;;;7.15;;
42018;SDS011;27703;51.980;5.848;2022-10-31T10:02:52;12.38;;;7.95;;
42018;SDS011;27703;51.980;5.848;2022-10-31T10:05:25;11.40;;;7.28;;
42018;SDS011;27703;51.980;5.848;2022-10-31T10:08:00;11.82;;;7.85;;
42018;SDS011;27703;51.980;5.848;2022-10-31T10:14:08;14.70;;;8.55;;
42018;SDS011;27703;51.980;5.848;2022-10-31T10:16:45;10.57;;;7.90;;
42018;SDS011;27703;51.980;5.848;2022-10-31T10:22:13;12.85;;;8.90;;
42018;SDS011;27703;51.980;5.848;2022-10-31T10:30:16;17.27;;;11.37;;
42018;SDS011;27703;51.980;5.848;2022-10-31T10:32:55;15.88;;;10.52;;
42018;SDS011;27703;51.980;5.848;2022-10-31T10:35:24;18.65;;;13.02;;
42018;SDS011;27703;51.980;5.848;2022-10-31T10:37:56;16.90;;;12.23;;
42018;SDS011;27703;51.980;5.848;2022-10-31T10:40:36;16.60;;;9.88;;
42018;SDS011;27703;51.980;5.848;2022-10-31T10:43:20;13.52;;;9.07;;
42018;SDS011;27703;51.980;5.848;2022-10-31T10:51:44;16.17;;;8.32;;
42018;SDS011;27703;51.980;5.848;2022-10-31T10:57:20;20.88;;;11.45;;
42018;SDS011;27703;51.980;5.848;2022-10-31T10:59:51;16.88;;;9.00;;
42018;SDS011;27703;51.980;5.848;2022-10-31T11:02:18;18.60;;;11.25;;
42018;SDS011;27703;51.980;5.848;2022-10-31T11:04:47;21.52;;;13.18;;
42018;SDS011;27703;51.980;5.848;2022-10-31T11:07:20;20.85;;;11.57;;
42018;SDS011;27703;51.980;5.848;2022-10-31T11:09:46;17.98;;;10.20;;
42018;SDS011;27703;51.980;5.848;2022-10-31T11:12:21;19.90;;;10.18;;
42018;SDS011;27703;51.980;5.848;2022-10-31T11:14:52;15.75;;;11.25;;
42018;SDS011;27703;51.980;5.848;2022-10-31T11:17:31;21.13;;;12.02;;
42018;SDS011;27703;51.980;5.848;2022-10-31T11:22:46;24.80;;;13.45;;
42018;SDS011;27703;51.980;5.848;2022-10-31T11:27:44;21.77;;;13.35;;
42018;SDS011;27703;51.980;5.848;2022-10-31T11:30:11;20.73;;;11.48;;
42018;SDS011;27703;51.980;5.848;2022-10-31T11:32:40;23.55;;;14.68;;
42018;SDS011;27703;51.980;5.848;2022-10-31T11:35:17;20.83;;;11.82;;
42018;SDS011;27703;51.980;5.848;2022-10-31T11:37:45;22.98;;;14.15;;
42018;SDS011;27703;51.980;5.848;2022-10-31T11:40:16;23.55;;;14.23;;
42018;SDS011;27703;51.980;5.848;2022-10-31T11:42:44;28.50;;;17.13;;
42018;SDS011;27703;51.980;5.848;2022-10-31T11:45:18;30.08;;;16.20;;
42018;SDS011;27703;51.980;5.848;2022-10-31T11:47:56;28.67;;;13.88;;
42018;SDS011;27703;51.980;5.848;2022-10-31T11:50:25;31.35;;;16.38;;
42018;SDS011;27703;51.980;5.848;2022-10-31T11:53:03;27.23;;;16.63;;
42018;SDS011;27703;51.980;5.848;2022-10-31T11:55:36;27.38;;;15.95;;
42018;SDS011;27703;51.980;5.848;2022-10-31T11:58:03;33.42;;;18.65;;
42018;SDS011;27703;51.980;5.848;2022-10-31T12:00:30;29.80;;;15.88;;
42018;SDS011;27703;51.980;5.848;2022-10-31T12:06:10;25.50;;;14.45;;
42018;SDS011;27703;51.980;5.848;2022-10-31T12:08:50;21.35;;;13.20;;
42018;SDS011;27703;51.980;5.848;2022-10-31T12:22:08;29.25;;;17.52;;
42018;SDS011;27703;51.980;5.848;2022-10-31T12:24:54;29.08;;;18.05;;
42018;SDS011;27703;51.980;5.848;2022-10-31T12:36:08;30.83;;;16.48;;
42018;SDS011;27703;51.980;5.848;2022-10-31T12:38:53;25.83;;;14.73;;
42018;SDS011;27703;51.980;5.848;2022-10-31T12:41:45;26.42;;;16.23;;
42018;SDS011;27703;51.980;5.848;2022-10-31T12:50:22;27.90;;;18.30;;
42018;SDS011;27703;51.980;5.848;2022-10-31T12:53:10;29.80;;;17.98;;
42018;SDS011;27703;51.980;5.848;2022-10-31T12:58:28;30.55;;;17.50;;
42018;SDS011;27703;51.980;5.848;2022-10-31T13:06:14;26.55;;;15.95;;
42018;SDS011;27703;51.980;5.848;2022-10-31T13:08:45;23.80;;;15.30;;
42018;SDS011;27703;51.980;5.848;2022-10-31T13:11:21;27.08;;;15.10;;
42018;SDS011;27703;51.980;5.848;2022-10-31T13:13:59;21.98;;;14.00;;
42018;SDS011;27703;51.980;5.848;2022-10-31T13:16:34;36.42;;;17.33;;
42018;SDS011;27703;51.980;5.848;2022-10-31T13:22:04;28.38;;;16.58;;
42018;SDS011;27703;51.980;5.848;2022-10-31T13:32:41;36.55;;;18.00;;
42018;SDS011;27703;51.980;5.848;2022-10-31T13:35:22;32.63;;;17.33;;
42018;SDS011;27703;51.980;5.848;2022-10-31T13:40:53;29.85;;;18.20;;
42018;SDS011;27703;51.980;5.848;2022-10-31T13:43:28;31.65;;;17.63;;
42018;SDS011;27703;51.980;5.848;2022-10-31T13:45:58;30.65;;;17.10;;
42018;SDS011;27703;51.980;5.848;2022-10-31T13:50:59;34.47;;;16.00;;
42018;SDS011;27703;51.980;5.848;2022-10-31T13:56:19;29.70;;;15.65;;
42018;SDS011;27703;51.980;5.848;2022-10-31T14:01:32;29.73;;;17.88;;
42018;SDS011;27703;51.980;5.848;2022-10-31T14:04:00;25.33;;;14.40;;
42018;SDS011;27703;51.980;5.848;2022-10-31T14:06:46;26.80;;;14.25;;
42018;SDS011;27703;51.980;5.848;2022-10-31T14:12:11;24.50;;;13.52;;
42018;SDS011;27703;51.980;5.848;2022-10-31T14:14:59;24.33;;;14.07;;
42018;SDS011;27703;51.980;5.848;2022-10-31T14:22:40;25.98;;;15.38;;
42018;SDS011;27703;51.980;5.848;2022-10-31T14:28:01;25.30;;;13.48;;
42018;SDS011;27703;51.980;5.848;2022-10-31T14:30:50;27.50;;;16.20;;
42018;SDS011;27703;51.980;5.848;2022-10-31T14:33:19;27.48;;;15.80;;
42018;SDS011;27703;51.980;5.848;2022-10-31T14:35:51;27.92;;;15.45;;
42018;SDS011;27703;51.980;5.848;2022-10-31T14:38:29;22.77;;;13.48;;
42018;SDS011;27703;51.980;5.848;2022-10-31T14:46:15;27.90;;;15.00;;
42018;SDS011;27703;51.980;5.848;2022-10-31T14:49:02;27.98;;;14.00;;
42018;SDS011;27703;51.980;5.848;2022-10-31T14:51:56;32.05;;;15.38;;
42018;SDS011;27703;51.980;5.848;2022-10-31T14:54:29;25.80;;;14.25;;
42018;SDS011;27703;51.980;5.848;2022-10-31T14:57:01;27.02;;;14.88;;
42018;SDS011;27703;51.980;5.848;2022-10-31T14:59:31;25.63;;;13.68;;
42018;SDS011;27703;51.980;5.848;2022-10-31T15:02:08;18.33;;;11.75;;
42018;SDS011;27703;51.980;5.848;2022-10-31T15:04:39;20.83;;;12.30;;
42018;SDS011;27703;51.980;5.848;2022-10-31T15:07:24;24.52;;;13.07;;
42018;SDS011;27703;51.980;5.848;2022-10-31T15:09:58;28.02;;;14.77;;
42018;SDS011;27703;51.980;5.848;2022-10-31T15:12:26;31.85;;;16.80;;
42018;SDS011;27703;51.980;5.848;2022-10-31T15:14:53;24.63;;;15.63;;
42018;SDS011;27703;51.980;5.848;2022-10-31T15:17:20;25.33;;;14.38;;
42018;SDS011;27703;51.980;5.848;2022-10-31T15:19:50;31.02;;;14.48;;
42018;SDS011;27703;51.980;5.848;2022-10-31T15:22:17;24.60;;;12.82;;
42018;SDS011;27703;51.980;5.848;2022-10-31T15:24:44;24.08;;;14.57;;
42018;SDS011;27703;51.980;5.848;2022-10-31T15:27:11;29.35;;;15.68;;
42018;SDS011;27703;51.980;5.848;2022-10-31T15:29:48;27.83;;;15.75;;
42018;SDS011;27703;51.980;5.848;2022-10-31T15:32:20;27.17;;;15.88;;
42018;SDS011;27703;51.980;5.848;2022-10-31T15:34:50;29.85;;;15.57;;
42018;SDS011;27703;51.980;5.848;2022-10-31T15:37:18;27.73;;;14.45;;
42018;SDS011;27703;51.980;5.848;2022-10-31T15:39:45;26.70;;;14.15;;
42018;SDS011;27703;51.980;5.848;2022-10-31T15:42:22;27.70;;;14.20;;
42018;SDS011;27703;51.980;5.848;2022-10-31T15:45:16;23.58;;;14.00;;
42018;SDS011;27703;51.980;5.848;2022-10-31T15:47:44;23.17;;;13.40;;
42018;SDS011;27703;51.980;5.848;2022-10-31T15:50:37;22.83;;;13.10;;
42018;SDS011;27703;51.980;5.848;2022-10-31T15:53:16;23.10;;;12.30;;
42018;SDS011;27703;51.980;5.848;2022-10-31T15:55:46;22.25;;;13.15;;
42018;SDS011;27703;51.980;5.848;2022-10-31T15:58:16;24.85;;;12.75;;
42018;SDS011;27703;51.980;5.848;2022-10-31T16:00:42;29.05;;;13.32;;
42018;SDS011;27703;51.980;5.848;2022-10-31T16:03:20;25.85;;;14.02;;
42018;SDS011;27703;51.980;5.848;2022-10-31T16:05:51;26.98;;;14.68;;
42018;SDS011;27703;51.980;5.848;2022-10-31T16:13:38;25.65;;;14.00;;
42018;SDS011;27703;51.980;5.848;2022-10-31T16:16:23;24.95;;;14.13;;
42018;SDS011;27703;51.980;5.848;2022-10-31T16:18:50;23.50;;;13.02;;
42018;SDS011;27703;51.980;5.848;2022-10-31T16:21:27;22.23;;;13.35;;
42018;SDS011;27703;51.980;5.848;2022-10-31T16:23:57;22.25;;;14.20;;
42018;SDS011;27703;51.980;5.848;2022-10-31T16:26:51;28.40;;;15.63;;
42018;SDS011;27703;51.980;5.848;2022-10-31T16:29:24;24.65;;;14.43;;
42018;SDS011;27703;51.980;5.848;2022-10-31T16:32:03;21.85;;;13.15;;
42018;SDS011;27703;51.980;5.848;2022-10-31T16:34:28;29.30;;;15.90;;
42018;SDS011;27703;51.980;5.848;2022-10-31T16:36:54;21.92;;;14.43;;
42018;SDS011;27703;51.980;5.848;2022-10-31T16:39:20;26.88;;;14.73;;
42018;SDS011;27703;51.980;5.848;2022-10-31T16:41:50;23.23;;;12.85;;
42018;SDS011;27703;51.980;5.848;2022-10-31T16:44:18;24.88;;;13.48;;
42018;SDS011;27703;51.980;5.848;2022-10-31T16:46:46;23.45;;;12.63;;
42018;SDS011;27703;51.980;5.848;2022-10-31T16:49:11;21.95;;;12.35;;
42018;SDS011;27703;51.980;5.848;2022-10-31T16:51:37;27.08;;;12.93;;
42018;SDS011;27703;51.980;5.848;2022-10-31T16:54:03;22.55;;;12.18;;
42018;SDS011;27703;51.980;5.848;2022-10-31T16:56:29;23.40;;;12.88;;
42018;SDS011;27703;51.980;5.848;2022-10-31T16:58:57;26.42;;;15.25;;
42018;SDS011;27703;51.980;5.848;2022-10-31T17:01:24;23.27;;;11.95;;
42018;SDS011;27703;51.980;5.848;2022-10-31T17:03:49;22.35;;;12.68;;
42018;SDS011;27703;51.980;5.848;2022-10-31T17:06:15;22.40;;;12.98;;
42018;SDS011;27703;51.980;5.848;2022-10-31T17:08:41;23.77;;;12.50;;